sensor_id;sensor_type;location;lat;lon;timestamp;P1;durP1;ratioP1;P2;durP2;ratioP2
10295;SDS011;5193;51.032;6.356;2023-09-18T00:01:56;9.97;;;3.87;;
10295;SDS011;5193;51.032;6.356;2023-09-18T00:04:21;6.20;;;3.80;;
10295;SDS011;5193;51.032;6.356;2023-09-18T00:06:47;10.50;;;4.20;;
10295;SDS011;5193;51.032;6.356;2023-09-18T00:09:14;5.50;;;3.53;;
10295;SDS011;5193;51.032;6.356;2023-09-18T00:11:40;4.43;;;3.70;;
10295;SDS011;5193;51.032;6.356;2023-09-18T00:14:09;8.07;;;3.97;;
10295;SDS011;5193;51.032;6.356;2023-09-18T00:16:36;11.30;;;4.23;;
10295;SDS011;5193;51.032;6.356;2023-09-18T00:19:03;5.33;;;3.83;;
10295;SDS011;5193;51.032;6.356;2023-09-18T00:21:29;9.00;;;3.97;;
10295;SDS011;5193;51.032;6.356;2023-09-18T00:23:56;6.83;;;3.53;;
10295;SDS011;5193;51.032;6.356;2023-09-18T00:26:23;6.27;;;3.80;;
10295;SDS011;5193;51.032;6.356;2023-09-18T00:28:50;7.20;;;3.97;;
10295;SDS011;5193;51.032;6.356;2023-09-18T00:31:16;9.23;;;4.10;;
10295;SDS011;5193;51.032;6.356;2023-09-18T00:33:42;10.40;;;4.43;;
10295;SDS011;5193;51.032;6.356;2023-09-18T00:36:09;12.10;;;4.03;;
10295;SDS011;5193;51.032;6.356;2023-09-18T00:38:35;10.40;;;4.50;;
10295;SDS011;5193;51.032;6.356;2023-09-18T00:41:02;8.17;;;4.30;;
10295;SDS011;5193;51.032;6.356;2023-09-18T00:43:27;6.33;;;4.00;;
10295;SDS011;5193;51.032;6.356;2023-09-18T00:45:53;10.17;;;4.23;;
10295;SDS011;5193;51.032;6.356;2023-09-18T00:48:19;7.83;;;4.40;;
10295;SDS011;5193;51.032;6.356;2023-09-18T00:50:46;10.30;;;3.93;;
10295;SDS011;5193;51.032;6.356;2023-09-18T00:53:16;8.03;;;4.07;;
10295;SDS011;5193;51.032;6.356;2023-09-18T00:55:45;6.77;;;3.70;;
10295;SDS011;5193;51.032;6.356;2023-09-18T00:58:11;6.03;;;3.80;;
10295;SDS011;5193;51.032;6.356;2023-09-18T01:00:37;9.43;;;4.80;;
10295;SDS011;5193;51.032;6.356;2023-09-18T01:03:03;10.07;;;4.40;;
10295;SDS011;5193;51.032;6.356;2023-09-18T01:05:33;7.47;;;3.90;;
10295;SDS011;5193;51.032;6.356;2023-09-18T01:07:59;8.60;;;4.70;;
10295;SDS011;5193;51.032;6.356;2023-09-18T01:10:25;11.00;;;4.27;;
10295;SDS011;5193;51.032;6.356;2023-09-18T01:13:04;10.10;;;4.50;;
10295;SDS011;5193;51.032;6.356;2023-09-18T01:15:39;5.73;;;4.40;;
10295;SDS011;5193;51.032;6.356;2023-09-18T01:18:27;8.63;;;4.67;;
10295;SDS011;5193;51.032;6.356;2023-09-18T01:20:53;7.33;;;4.60;;
10295;SDS011;5193;51.032;6.356;2023-09-18T01:23:19;10.10;;;4.97;;
10295;SDS011;5193;51.032;6.356;2023-09-18T01:25:44;9.60;;;4.50;;
10295;SDS011;5193;51.032;6.356;2023-09-18T01:28:10;8.10;;;4.37;;
10295;SDS011;5193;51.032;6.356;2023-09-18T01:30:35;8.80;;;4.33;;
10295;SDS011;5193;51.032;6.356;2023-09-18T01:33:03;6.80;;;4.40;;
10295;SDS011;5193;51.032;6.356;2023-09-18T01:35:29;7.47;;;4.20;;
10295;SDS011;5193;51.032;6.356;2023-09-18T01:37:59;6.57;;;4.30;;
10295;SDS011;5193;51.032;6.356;2023-09-18T01:40:25;9.73;;;4.57;;
10295;SDS011;5193;51.032;6.356;2023-09-18T01:42:52;15.93;;;4.93;;
10295;SDS011;5193;51.032;6.356;2023-09-18T01:45:18;11.13;;;4.53;;
10295;SDS011;5193;51.032;6.356;2023-09-18T01:47:44;8.83;;;4.30;;
10295;SDS011;5193;51.032;6.356;2023-09-18T01:50:11;12.10;;;4.43;;
10295;SDS011;5193;51.032;6.356;2023-09-18T01:52:37;11.30;;;4.40;;
10295;SDS011;5193;51.032;6.356;2023-09-18T01:55:03;9.70;;;4.60;;
10295;SDS011;5193;51.032;6.356;2023-09-18T01:57:32;12.60;;;4.80;;
10295;SDS011;5193;51.032;6.356;2023-09-18T01:59:58;9.33;;;4.93;;
10295;SDS011;5193;51.032;6.356;2023-09-18T02:02:24;8.73;;;4.57;;
10295;SDS011;5193;51.032;6.356;2023-09-18T02:04:50;12.20;;;4.73;;
10295;SDS011;5193;51.032;6.356;2023-09-18T02:07:15;8.73;;;4.43;;
10295;SDS011;5193;51.032;6.356;2023-09-18T02:09:41;11.73;;;5.00;;
10295;SDS011;5193;51.032;6.356;2023-09-18T02:12:07;9.10;;;4.60;;
10295;SDS011;5193;51.032;6.356;2023-09-18T02:14:32;10.77;;;4.57;;
10295;SDS011;5193;51.032;6.356;2023-09-18T02:16:59;15.00;;;4.53;;
10295;SDS011;5193;51.032;6.356;2023-09-18T02:19:24;9.90;;;4.20;;
10295;SDS011;5193;51.032;6.356;2023-09-18T02:21:51;9.20;;;4.50;;
10295;SDS011;5193;51.032;6.356;2023-09-18T02:24:17;10.43;;;4.63;;
10295;SDS011;5193;51.032;6.356;2023-09-18T02:26:44;9.27;;;4.47;;
10295;SDS011;5193;51.032;6.356;2023-09-18T02:29:10;8.50;;;4.70;;
10295;SDS011;5193;51.032;6.356;2023-09-18T02:31:37;5.90;;;4.33;;
10295;SDS011;5193;51.032;6.356;2023-09-18T02:34:03;9.03;;;4.57;;
10295;SDS011;5193;51.032;6.356;2023-09-18T02:36:28;6.70;;;4.40;;
10295;SDS011;5193;51.032;6.356;2023-09-18T02:38:54;11.40;;;4.90;;
10295;SDS011;5193;51.032;6.356;2023-09-18T02:41:20;7.73;;;4.73;;
10295;SDS011;5193;51.032;6.356;2023-09-18T02:43:46;15.63;;;4.50;;
10295;SDS011;5193;51.032;6.356;2023-09-18T02:46:11;10.47;;;5.03;;
10295;SDS011;5193;51.032;6.356;2023-09-18T02:48:37;8.80;;;4.73;;
10295;SDS011;5193;51.032;6.356;2023-09-18T02:51:03;12.40;;;4.77;;
10295;SDS011;5193;51.032;6.356;2023-09-18T02:53:30;6.40;;;4.13;;
10295;SDS011;5193;51.032;6.356;2023-09-18T02:55:57;9.67;;;4.87;;
10295;SDS011;5193;51.032;6.356;2023-09-18T02:58:24;8.67;;;4.53;;
10295;SDS011;5193;51.032;6.356;2023-09-18T03:00:54;11.50;;;4.87;;
10295;SDS011;5193;51.032;6.356;2023-09-18T03:06:02;10.17;;;4.93;;
10295;SDS011;5193;51.032;6.356;2023-09-18T03:08:46;8.93;;;4.13;;
10295;SDS011;5193;51.032;6.356;2023-09-18T03:11:12;8.23;;;4.13;;
10295;SDS011;5193;51.032;6.356;2023-09-18T03:13:43;10.53;;;4.10;;
10295;SDS011;5193;51.032;6.356;2023-09-18T03:18:51;5.30;;;3.07;;
10295;SDS011;5193;51.032;6.356;2023-09-18T03:21:17;5.63;;;3.57;;
10295;SDS011;5193;51.032;6.356;2023-09-18T03:23:42;8.33;;;3.43;;
10295;SDS011;5193;51.032;6.356;2023-09-18T03:26:08;5.47;;;2.93;;
10295;SDS011;5193;51.032;6.356;2023-09-18T03:28:34;8.00;;;3.40;;
10295;SDS011;5193;51.032;6.356;2023-09-18T03:31:00;8.03;;;3.70;;
10295;SDS011;5193;51.032;6.356;2023-09-18T03:33:25;7.17;;;3.20;;
10295;SDS011;5193;51.032;6.356;2023-09-18T03:35:51;8.80;;;3.10;;
10295;SDS011;5193;51.032;6.356;2023-09-18T03:38:19;11.63;;;3.63;;
10295;SDS011;5193;51.032;6.356;2023-09-18T03:40:46;4.43;;;2.70;;
10295;SDS011;5193;51.032;6.356;2023-09-18T03:43:12;6.20;;;3.13;;
10295;SDS011;5193;51.032;6.356;2023-09-18T03:45:38;8.40;;;2.90;;
10295;SDS011;5193;51.032;6.356;2023-09-18T03:48:05;6.67;;;2.80;;
10295;SDS011;5193;51.032;6.356;2023-09-18T03:50:31;8.03;;;2.93;;
10295;SDS011;5193;51.032;6.356;2023-09-18T03:52:57;3.67;;;2.30;;
10295;SDS011;5193;51.032;6.356;2023-09-18T03:55:23;11.90;;;2.87;;
10295;SDS011;5193;51.032;6.356;2023-09-18T03:57:52;9.50;;;2.53;;
10295;SDS011;5193;51.032;6.356;2023-09-18T04:00:18;7.50;;;2.80;;
10295;SDS011;5193;51.032;6.356;2023-09-18T04:02:44;7.83;;;3.07;;
10295;SDS011;5193;51.032;6.356;2023-09-18T04:05:10;11.83;;;2.60;;
10295;SDS011;5193;51.032;6.356;2023-09-18T04:10:15;10.40;;;2.53;;
10295;SDS011;5193;51.032;6.356;2023-09-18T04:12:47;7.70;;;2.80;;
10295;SDS011;5193;51.032;6.356;2023-09-18T04:15:15;8.40;;;2.70;;
10295;SDS011;5193;51.032;6.356;2023-09-18T04:17:43;9.83;;;2.50;;
10295;SDS011;5193;51.032;6.356;2023-09-18T04:20:09;7.97;;;2.80;;
10295;SDS011;5193;51.032;6.356;2023-09-18T04:22:41;6.13;;;2.30;;
10295;SDS011;5193;51.032;6.356;2023-09-18T04:25:15;6.43;;;2.20;;
10295;SDS011;5193;51.032;6.356;2023-09-18T04:27:41;5.93;;;2.60;;
10295;SDS011;5193;51.032;6.356;2023-09-18T04:30:08;5.30;;;2.30;;
10295;SDS011;5193;51.032;6.356;2023-09-18T04:32:37;6.07;;;2.73;;
10295;SDS011;5193;51.032;6.356;2023-09-18T04:35:03;9.00;;;1.87;;
10295;SDS011;5193;51.032;6.356;2023-09-18T04:37:30;4.60;;;1.90;;
10295;SDS011;5193;51.032;6.356;2023-09-18T04:39:59;6.93;;;2.00;;
10295;SDS011;5193;51.032;6.356;2023-09-18T04:42:25;4.10;;;1.73;;
10295;SDS011;5193;51.032;6.356;2023-09-18T04:44:51;7.20;;;1.90;;
10295;SDS011;5193;51.032;6.356;2023-09-18T04:47:16;11.53;;;1.97;;
10295;SDS011;5193;51.032;6.356;2023-09-18T04:49:42;5.20;;;2.00;;
10295;SDS011;5193;51.032;6.356;2023-09-18T04:52:12;4.63;;;1.97;;
10295;SDS011;5193;51.032;6.356;2023-09-18T05:02:42;7.33;;;1.80;;
10295;SDS011;5193;51.032;6.356;2023-09-18T05:07:44;3.63;;;1.50;;
10295;SDS011;5193;51.032;6.356;2023-09-18T05:12:38;5.23;;;1.77;;
10295;SDS011;5193;51.032;6.356;2023-09-18T05:15:05;4.93;;;1.60;;
10295;SDS011;5193;51.032;6.356;2023-09-18T05:17:39;3.17;;;1.47;;
10295;SDS011;5193;51.032;6.356;2023-09-18T05:20:11;4.80;;;1.50;;
10295;SDS011;5193;51.032;6.356;2023-09-18T05:22:41;4.43;;;1.70;;
10295;SDS011;5193;51.032;6.356;2023-09-18T05:25:08;4.53;;;1.60;;
10295;SDS011;5193;51.032;6.356;2023-09-18T05:27:35;5.00;;;1.40;;
10295;SDS011;5193;51.032;6.356;2023-09-18T05:30:09;4.10;;;1.60;;
10295;SDS011;5193;51.032;6.356;2023-09-18T05:32:37;4.90;;;1.63;;
10295;SDS011;5193;51.032;6.356;2023-09-18T05:35:04;6.47;;;1.70;;
10295;SDS011;5193;51.032;6.356;2023-09-18T05:37:35;3.43;;;1.33;;
10295;SDS011;5193;51.032;6.356;2023-09-18T05:40:03;5.90;;;1.53;;
10295;SDS011;5193;51.032;6.356;2023-09-18T05:42:30;3.43;;;1.37;;
10295;SDS011;5193;51.032;6.356;2023-09-18T05:44:56;5.00;;;1.50;;
10295;SDS011;5193;51.032;6.356;2023-09-18T05:47:21;1.97;;;1.40;;
10295;SDS011;5193;51.032;6.356;2023-09-18T05:49:48;6.10;;;1.70;;
10295;SDS011;5193;51.032;6.356;2023-09-18T05:52:14;4.57;;;1.40;;
10295;SDS011;5193;51.032;6.356;2023-09-18T05:54:39;9.90;;;1.70;;
10295;SDS011;5193;51.032;6.356;2023-09-18T05:57:05;8.33;;;1.60;;
10295;SDS011;5193;51.032;6.356;2023-09-18T05:59:32;3.47;;;1.37;;
10295;SDS011;5193;51.032;6.356;2023-09-18T06:01:57;3.47;;;1.43;;
10295;SDS011;5193;51.032;6.356;2023-09-18T06:04:23;3.83;;;1.60;;
10295;SDS011;5193;51.032;6.356;2023-09-18T06:06:49;4.77;;;1.37;;
10295;SDS011;5193;51.032;6.356;2023-09-18T06:09:16;3.77;;;1.40;;
10295;SDS011;5193;51.032;6.356;2023-09-18T06:11:43;3.03;;;1.40;;
10295;SDS011;5193;51.032;6.356;2023-09-18T06:14:09;3.10;;;1.40;;
10295;SDS011;5193;51.032;6.356;2023-09-18T06:16:35;3.67;;;1.43;;
10295;SDS011;5193;51.032;6.356;2023-09-18T06:19:02;2.70;;;1.50;;
10295;SDS011;5193;51.032;6.356;2023-09-18T06:21:29;2.97;;;1.20;;
10295;SDS011;5193;51.032;6.356;2023-09-18T06:23:54;6.47;;;1.70;;
10295;SDS011;5193;51.032;6.356;2023-09-18T06:26:20;3.27;;;1.60;;
10295;SDS011;5193;51.032;6.356;2023-09-18T06:28:46;3.53;;;1.53;;
10295;SDS011;5193;51.032;6.356;2023-09-18T06:31:12;4.90;;;1.20;;
10295;SDS011;5193;51.032;6.356;2023-09-18T06:33:38;3.87;;;1.80;;
10295;SDS011;5193;51.032;6.356;2023-09-18T06:36:03;2.30;;;1.17;;
10295;SDS011;5193;51.032;6.356;2023-09-18T06:38:29;4.70;;;1.40;;
10295;SDS011;5193;51.032;6.356;2023-09-18T06:40:55;6.03;;;1.03;;
10295;SDS011;5193;51.032;6.356;2023-09-18T06:43:20;1.70;;;1.00;;
10295;SDS011;5193;51.032;6.356;2023-09-18T06:45:48;6.07;;;2.07;;
10295;SDS011;5193;51.032;6.356;2023-09-18T06:48:13;4.47;;;1.83;;
10295;SDS011;5193;51.032;6.356;2023-09-18T06:50:41;4.90;;;1.20;;
10295;SDS011;5193;51.032;6.356;2023-09-18T06:53:08;4.07;;;1.20;;
10295;SDS011;5193;51.032;6.356;2023-09-18T06:55:35;1.50;;;1.00;;
10295;SDS011;5193;51.032;6.356;2023-09-18T06:58:01;3.23;;;1.37;;
10295;SDS011;5193;51.032;6.356;2023-09-18T07:00:27;2.50;;;1.10;;
10295;SDS011;5193;51.032;6.356;2023-09-18T07:02:53;3.30;;;1.33;;
10295;SDS011;5193;51.032;6.356;2023-09-18T07:05:18;3.40;;;1.30;;
10295;SDS011;5193;51.032;6.356;2023-09-18T07:07:44;5.60;;;1.50;;
10295;SDS011;5193;51.032;6.356;2023-09-18T07:10:09;1.87;;;1.17;;
10295;SDS011;5193;51.032;6.356;2023-09-18T07:12:35;4.63;;;1.30;;
10295;SDS011;5193;51.032;6.356;2023-09-18T07:15:02;3.67;;;1.20;;
10295;SDS011;5193;51.032;6.356;2023-09-18T07:17:28;3.47;;;1.30;;
10295;SDS011;5193;51.032;6.356;2023-09-18T07:19:54;2.40;;;1.10;;
10295;SDS011;5193;51.032;6.356;2023-09-18T07:22:20;4.97;;;1.30;;
10295;SDS011;5193;51.032;6.356;2023-09-18T07:24:45;2.50;;;1.20;;
10295;SDS011;5193;51.032;6.356;2023-09-18T07:27:11;2.80;;;1.20;;
10295;SDS011;5193;51.032;6.356;2023-09-18T07:29:37;4.67;;;1.13;;
10295;SDS011;5193;51.032;6.356;2023-09-18T07:32:04;2.53;;;1.20;;
10295;SDS011;5193;51.032;6.356;2023-09-18T07:34:29;2.00;;;1.10;;
10295;SDS011;5193;51.032;6.356;2023-09-18T07:36:55;2.47;;;1.30;;
10295;SDS011;5193;51.032;6.356;2023-09-18T07:39:21;2.90;;;1.37;;
10295;SDS011;5193;51.032;6.356;2023-09-18T07:41:47;5.10;;;1.20;;
10295;SDS011;5193;51.032;6.356;2023-09-18T07:44:16;5.77;;;1.43;;
10295;SDS011;5193;51.032;6.356;2023-09-18T07:46:44;4.10;;;1.27;;
10295;SDS011;5193;51.032;6.356;2023-09-18T07:49:10;3.67;;;1.17;;
10295;SDS011;5193;51.032;6.356;2023-09-18T07:51:35;4.40;;;1.30;;
10295;SDS011;5193;51.032;6.356;2023-09-18T07:54:01;2.33;;;1.00;;
10295;SDS011;5193;51.032;6.356;2023-09-18T07:56:26;9.30;;;1.37;;
10295;SDS011;5193;51.032;6.356;2023-09-18T07:58:52;3.47;;;1.20;;
10295;SDS011;5193;51.032;6.356;2023-09-18T08:01:18;1.90;;;1.00;;
10295;SDS011;5193;51.032;6.356;2023-09-18T08:03:46;3.87;;;1.20;;
10295;SDS011;5193;51.032;6.356;2023-09-18T08:06:12;2.27;;;0.90;;
10295;SDS011;5193;51.032;6.356;2023-09-18T08:08:39;3.53;;;1.10;;
10295;SDS011;5193;51.032;6.356;2023-09-18T08:11:08;3.30;;;1.10;;
10295;SDS011;5193;51.032;6.356;2023-09-18T08:13:34;5.30;;;1.60;;
10295;SDS011;5193;51.032;6.356;2023-09-18T08:16:00;3.23;;;0.97;;
10295;SDS011;5193;51.032;6.356;2023-09-18T08:18:26;3.40;;;1.03;;
10295;SDS011;5193;51.032;6.356;2023-09-18T08:20:52;5.77;;;1.03;;
10295;SDS011;5193;51.032;6.356;2023-09-18T08:23:19;2.57;;;1.07;;
10295;SDS011;5193;51.032;6.356;2023-09-18T08:25:45;3.20;;;1.20;;
10295;SDS011;5193;51.032;6.356;2023-09-18T08:28:12;4.83;;;1.20;;
10295;SDS011;5193;51.032;6.356;2023-09-18T08:30:40;3.33;;;1.27;;
10295;SDS011;5193;51.032;6.356;2023-09-18T08:33:09;4.37;;;1.10;;
10295;SDS011;5193;51.032;6.356;2023-09-18T08:35:36;3.87;;;1.30;;
10295;SDS011;5193;51.032;6.356;2023-09-18T08:38:01;3.07;;;1.33;;
10295;SDS011;5193;51.032;6.356;2023-09-18T08:40:28;2.77;;;1.30;;
10295;SDS011;5193;51.032;6.356;2023-09-18T08:42:55;2.07;;;1.03;;
10295;SDS011;5193;51.032;6.356;2023-09-18T08:45:31;2.77;;;1.07;;
10295;SDS011;5193;51.032;6.356;2023-09-18T08:47:58;2.80;;;1.10;;
10295;SDS011;5193;51.032;6.356;2023-09-18T08:50:25;3.07;;;1.03;;
10295;SDS011;5193;51.032;6.356;2023-09-18T08:52:51;2.67;;;1.00;;
10295;SDS011;5193;51.032;6.356;2023-09-18T08:55:17;3.60;;;1.03;;
10295;SDS011;5193;51.032;6.356;2023-09-18T08:57:43;3.60;;;1.10;;
10295;SDS011;5193;51.032;6.356;2023-09-18T09:00:11;2.00;;;1.10;;
10295;SDS011;5193;51.032;6.356;2023-09-18T09:02:42;2.43;;;1.13;;
10295;SDS011;5193;51.032;6.356;2023-09-18T09:05:13;3.60;;;1.20;;
10295;SDS011;5193;51.032;6.356;2023-09-18T09:07:39;1.53;;;0.97;;
10295;SDS011;5193;51.032;6.356;2023-09-18T09:10:05;4.93;;;1.30;;
10295;SDS011;5193;51.032;6.356;2023-09-18T09:12:47;4.00;;;1.17;;
10295;SDS011;5193;51.032;6.356;2023-09-18T09:15:19;5.67;;;1.60;;
10295;SDS011;5193;51.032;6.356;2023-09-18T09:17:52;6.07;;;0.90;;
10295;SDS011;5193;51.032;6.356;2023-09-18T09:20:28;1.97;;;1.00;;
10295;SDS011;5193;51.032;6.356;2023-09-18T09:22:59;2.43;;;1.10;;
10295;SDS011;5193;51.032;6.356;2023-09-18T09:25:31;3.50;;;1.30;;
10295;SDS011;5193;51.032;6.356;2023-09-18T09:27:58;2.87;;;1.07;;
10295;SDS011;5193;51.032;6.356;2023-09-18T09:30:27;2.17;;;1.20;;
10295;SDS011;5193;51.032;6.356;2023-09-18T09:32:54;2.77;;;1.30;;
10295;SDS011;5193;51.032;6.356;2023-09-18T09:35:21;3.40;;;1.40;;
10295;SDS011;5193;51.032;6.356;2023-09-18T09:37:58;1.67;;;1.20;;
10295;SDS011;5193;51.032;6.356;2023-09-18T09:40:28;4.77;;;1.50;;
10295;SDS011;5193;51.032;6.356;2023-09-18T09:42:57;1.63;;;0.90;;
10295;SDS011;5193;51.032;6.356;2023-09-18T09:45:26;2.37;;;1.13;;
10295;SDS011;5193;51.032;6.356;2023-09-18T09:47:56;1.60;;;0.97;;
10295;SDS011;5193;51.032;6.356;2023-09-18T09:50:22;2.17;;;1.17;;
10295;SDS011;5193;51.032;6.356;2023-09-18T09:52:51;2.47;;;1.13;;
10295;SDS011;5193;51.032;6.356;2023-09-18T09:55:23;1.50;;;1.30;;
10295;SDS011;5193;51.032;6.356;2023-09-18T09:58:02;4.53;;;1.30;;
10295;SDS011;5193;51.032;6.356;2023-09-18T10:00:36;3.77;;;1.53;;
10295;SDS011;5193;51.032;6.356;2023-09-18T10:03:16;4.17;;;1.20;;
10295;SDS011;5193;51.032;6.356;2023-09-18T10:05:45;2.97;;;1.33;;
10295;SDS011;5193;51.032;6.356;2023-09-18T10:08:13;2.70;;;1.27;;
10295;SDS011;5193;51.032;6.356;2023-09-18T10:16:11;1.73;;;1.10;;
10295;SDS011;5193;51.032;6.356;2023-09-18T10:24:33;3.33;;;1.33;;
10295;SDS011;5193;51.032;6.356;2023-09-18T10:27:02;2.60;;;1.27;;
10295;SDS011;5193;51.032;6.356;2023-09-18T10:29:29;2.87;;;1.30;;
10295;SDS011;5193;51.032;6.356;2023-09-18T10:31:56;4.43;;;1.20;;
10295;SDS011;5193;51.032;6.356;2023-09-18T10:34:22;1.73;;;1.20;;
10295;SDS011;5193;51.032;6.356;2023-09-18T10:36:50;3.57;;;1.40;;
10295;SDS011;5193;51.032;6.356;2023-09-18T10:39:17;4.87;;;1.47;;
10295;SDS011;5193;51.032;6.356;2023-09-18T10:41:49;2.27;;;1.30;;
10295;SDS011;5193;51.032;6.356;2023-09-18T10:44:18;1.83;;;1.10;;
10295;SDS011;5193;51.032;6.356;2023-09-18T10:46:48;1.97;;;1.27;;
10295;SDS011;5193;51.032;6.356;2023-09-18T10:49:16;2.10;;;1.20;;
10295;SDS011;5193;51.032;6.356;2023-09-18T10:51:43;3.00;;;1.50;;
10295;SDS011;5193;51.032;6.356;2023-09-18T10:54:15;3.73;;;1.20;;
10295;SDS011;5193;51.032;6.356;2023-09-18T10:56:45;3.67;;;1.63;;
10295;SDS011;5193;51.032;6.356;2023-09-18T10:59:10;4.40;;;1.50;;
10295;SDS011;5193;51.032;6.356;2023-09-18T11:01:36;3.27;;;1.17;;
10295;SDS011;5193;51.032;6.356;2023-09-18T11:04:06;5.57;;;1.73;;
10295;SDS011;5193;51.032;6.356;2023-09-18T11:09:21;5.37;;;1.20;;
10295;SDS011;5193;51.032;6.356;2023-09-18T11:12:14;4.17;;;1.40;;
10295;SDS011;5193;51.032;6.356;2023-09-18T11:17:55;5.17;;;1.30;;
10295;SDS011;5193;51.032;6.356;2023-09-18T11:28:08;5.60;;;1.63;;
10295;SDS011;5193;51.032;6.356;2023-09-18T11:30:47;2.63;;;1.40;;
10295;SDS011;5193;51.032;6.356;2023-09-18T11:33:40;2.40;;;1.50;;
10295;SDS011;5193;51.032;6.356;2023-09-18T11:36:15;4.43;;;1.77;;
10295;SDS011;5193;51.032;6.356;2023-09-18T11:38:57;1.70;;;1.17;;
10295;SDS011;5193;51.032;6.356;2023-09-18T11:41:33;2.03;;;1.30;;
10295;SDS011;5193;51.032;6.356;2023-09-18T11:46:38;3.00;;;1.60;;
10295;SDS011;5193;51.032;6.356;2023-09-18T11:49:08;4.17;;;1.47;;
10295;SDS011;5193;51.032;6.356;2023-09-18T11:51:36;2.50;;;1.40;;
10295;SDS011;5193;51.032;6.356;2023-09-18T11:54:05;1.53;;;1.20;;
10295;SDS011;5193;51.032;6.356;2023-09-18T11:56:32;4.00;;;1.30;;
10295;SDS011;5193;51.032;6.356;2023-09-18T11:58:59;2.30;;;1.20;;
10295;SDS011;5193;51.032;6.356;2023-09-18T12:01:29;1.77;;;1.10;;
10295;SDS011;5193;51.032;6.356;2023-09-18T12:04:02;3.40;;;1.20;;
10295;SDS011;5193;51.032;6.356;2023-09-18T12:06:38;3.50;;;1.40;;
10295;SDS011;5193;51.032;6.356;2023-09-18T12:09:05;1.53;;;1.20;;
10295;SDS011;5193;51.032;6.356;2023-09-18T12:11:36;2.00;;;1.13;;
10295;SDS011;5193;51.032;6.356;2023-09-18T12:14:06;4.03;;;1.20;;
10295;SDS011;5193;51.032;6.356;2023-09-18T12:16:38;2.30;;;1.20;;
10295;SDS011;5193;51.032;6.356;2023-09-18T12:19:05;3.30;;;1.30;;
10295;SDS011;5193;51.032;6.356;2023-09-18T12:21:31;6.13;;;1.40;;
10295;SDS011;5193;51.032;6.356;2023-09-18T12:23:58;2.03;;;1.27;;
10295;SDS011;5193;51.032;6.356;2023-09-18T12:26:24;3.23;;;1.47;;
10295;SDS011;5193;51.032;6.356;2023-09-18T12:28:51;2.07;;;1.30;;
10295;SDS011;5193;51.032;6.356;2023-09-18T12:31:17;1.97;;;1.20;;
10295;SDS011;5193;51.032;6.356;2023-09-18T12:33:43;4.37;;;1.43;;
10295;SDS011;5193;51.032;6.356;2023-09-18T12:36:11;3.27;;;1.37;;
10295;SDS011;5193;51.032;6.356;2023-09-18T12:38:39;4.70;;;1.30;;
10295;SDS011;5193;51.032;6.356;2023-09-18T12:41:11;2.33;;;1.30;;
10295;SDS011;5193;51.032;6.356;2023-09-18T12:43:38;2.57;;;1.20;;
10295;SDS011;5193;51.032;6.356;2023-09-18T12:46:06;3.17;;;1.30;;
10295;SDS011;5193;51.032;6.356;2023-09-18T12:48:32;3.00;;;1.30;;
10295;SDS011;5193;51.032;6.356;2023-09-18T12:51:03;2.83;;;1.30;;
10295;SDS011;5193;51.032;6.356;2023-09-18T12:53:31;1.83;;;1.23;;
10295;SDS011;5193;51.032;6.356;2023-09-18T12:56:10;2.80;;;1.40;;
10295;SDS011;5193;51.032;6.356;2023-09-18T12:58:40;2.83;;;1.23;;
10295;SDS011;5193;51.032;6.356;2023-09-18T13:01:08;2.73;;;1.30;;
10295;SDS011;5193;51.032;6.356;2023-09-18T13:03:45;2.00;;;1.27;;
10295;SDS011;5193;51.032;6.356;2023-09-18T13:06:15;5.83;;;1.30;;
10295;SDS011;5193;51.032;6.356;2023-09-18T13:08:49;5.60;;;1.10;;
10295;SDS011;5193;51.032;6.356;2023-09-18T13:11:18;2.13;;;1.30;;
10295;SDS011;5193;51.032;6.356;2023-09-18T13:13:45;3.37;;;1.17;;
10295;SDS011;5193;51.032;6.356;2023-09-18T13:16:11;3.53;;;1.50;;
10295;SDS011;5193;51.032;6.356;2023-09-18T13:18:42;3.60;;;1.47;;
10295;SDS011;5193;51.032;6.356;2023-09-18T13:21:14;1.40;;;1.20;;
10295;SDS011;5193;51.032;6.356;2023-09-18T13:23:40;3.63;;;1.20;;
10295;SDS011;5193;51.032;6.356;2023-09-18T13:26:10;3.13;;;1.23;;
10295;SDS011;5193;51.032;6.356;2023-09-18T13:28:36;4.47;;;1.50;;
10295;SDS011;5193;51.032;6.356;2023-09-18T13:31:05;2.30;;;1.80;;
10295;SDS011;5193;51.032;6.356;2023-09-18T13:33:32;2.77;;;1.37;;
10295;SDS011;5193;51.032;6.356;2023-09-18T13:36:11;1.83;;;1.30;;
10295;SDS011;5193;51.032;6.356;2023-09-18T13:38:47;3.60;;;1.80;;
10295;SDS011;5193;51.032;6.356;2023-09-18T13:41:13;1.93;;;1.27;;
10295;SDS011;5193;51.032;6.356;2023-09-18T13:43:40;3.37;;;1.20;;
10295;SDS011;5193;51.032;6.356;2023-09-18T13:46:07;2.63;;;1.37;;
10295;SDS011;5193;51.032;6.356;2023-09-18T13:48:33;4.17;;;1.27;;
10295;SDS011;5193;51.032;6.356;2023-09-18T13:50:59;2.07;;;1.30;;
10295;SDS011;5193;51.032;6.356;2023-09-18T13:53:24;1.77;;;1.33;;
10295;SDS011;5193;51.032;6.356;2023-09-18T13:55:51;1.87;;;1.13;;
10295;SDS011;5193;51.032;6.356;2023-09-18T13:58:16;3.50;;;1.10;;
10295;SDS011;5193;51.032;6.356;2023-09-18T14:00:43;3.63;;;1.37;;
10295;SDS011;5193;51.032;6.356;2023-09-18T14:03:09;3.63;;;1.23;;
10295;SDS011;5193;51.032;6.356;2023-09-18T14:05:36;4.10;;;1.00;;
10295;SDS011;5193;51.032;6.356;2023-09-18T14:08:02;2.67;;;1.57;;
10295;SDS011;5193;51.032;6.356;2023-09-18T14:10:29;1.73;;;1.20;;
10295;SDS011;5193;51.032;6.356;2023-09-18T14:12:55;3.43;;;1.47;;
10295;SDS011;5193;51.032;6.356;2023-09-18T14:15:22;1.73;;;1.33;;
10295;SDS011;5193;51.032;6.356;2023-09-18T14:17:48;2.90;;;1.10;;
10295;SDS011;5193;51.032;6.356;2023-09-18T14:20:19;6.10;;;1.20;;
10295;SDS011;5193;51.032;6.356;2023-09-18T14:22:45;4.17;;;1.33;;
10295;SDS011;5193;51.032;6.356;2023-09-18T14:25:14;2.20;;;1.37;;
10295;SDS011;5193;51.032;6.356;2023-09-18T14:27:41;1.87;;;1.23;;
10295;SDS011;5193;51.032;6.356;2023-09-18T14:30:07;3.33;;;1.40;;
10295;SDS011;5193;51.032;6.356;2023-09-18T14:32:33;2.43;;;1.40;;
10295;SDS011;5193;51.032;6.356;2023-09-18T14:35:01;1.90;;;1.30;;
10295;SDS011;5193;51.032;6.356;2023-09-18T14:37:28;2.83;;;1.27;;
10295;SDS011;5193;51.032;6.356;2023-09-18T14:39:54;2.63;;;1.20;;
10295;SDS011;5193;51.032;6.356;2023-09-18T14:42:20;1.67;;;1.00;;
10295;SDS011;5193;51.032;6.356;2023-09-18T14:44:45;2.67;;;1.00;;
10295;SDS011;5193;51.032;6.356;2023-09-18T14:47:11;1.57;;;1.20;;
10295;SDS011;5193;51.032;6.356;2023-09-18T14:49:37;1.90;;;1.10;;
10295;SDS011;5193;51.032;6.356;2023-09-18T14:52:04;2.33;;;1.40;;
10295;SDS011;5193;51.032;6.356;2023-09-18T14:54:30;2.30;;;1.40;;
10295;SDS011;5193;51.032;6.356;2023-09-18T14:56:56;4.30;;;1.30;;
10295;SDS011;5193;51.032;6.356;2023-09-18T14:59:22;2.33;;;1.43;;
10295;SDS011;5193;51.032;6.356;2023-09-18T15:01:47;3.33;;;1.43;;
10295;SDS011;5193;51.032;6.356;2023-09-18T15:04:14;1.60;;;1.20;;
10295;SDS011;5193;51.032;6.356;2023-09-18T15:06:40;3.07;;;1.20;;
10295;SDS011;5193;51.032;6.356;2023-09-18T15:09:05;3.93;;;1.30;;
10295;SDS011;5193;51.032;6.356;2023-09-18T15:11:32;3.27;;;1.40;;
10295;SDS011;5193;51.032;6.356;2023-09-18T15:14:00;2.00;;;1.23;;
10295;SDS011;5193;51.032;6.356;2023-09-18T15:16:26;2.73;;;1.23;;
10295;SDS011;5193;51.032;6.356;2023-09-18T15:18:54;1.93;;;1.13;;
10295;SDS011;5193;51.032;6.356;2023-09-18T15:21:20;3.90;;;1.30;;
10295;SDS011;5193;51.032;6.356;2023-09-18T15:23:46;2.53;;;1.17;;
10295;SDS011;5193;51.032;6.356;2023-09-18T15:26:12;2.40;;;1.20;;
10295;SDS011;5193;51.032;6.356;2023-09-18T15:28:37;6.10;;;1.30;;
10295;SDS011;5193;51.032;6.356;2023-09-18T15:31:05;4.53;;;1.50;;
10295;SDS011;5193;51.032;6.356;2023-09-18T15:33:32;1.20;;;1.10;;
10295;SDS011;5193;51.032;6.356;2023-09-18T15:35:58;2.37;;;1.10;;
10295;SDS011;5193;51.032;6.356;2023-09-18T15:43:32;4.43;;;1.20;;
10295;SDS011;5193;51.032;6.356;2023-09-18T15:45:58;2.27;;;1.30;;
10295;SDS011;5193;51.032;6.356;2023-09-18T15:48:26;2.43;;;1.20;;
10295;SDS011;5193;51.032;6.356;2023-09-18T15:50:53;2.40;;;1.10;;
10295;SDS011;5193;51.032;6.356;2023-09-18T15:53:19;3.73;;;1.03;;
10295;SDS011;5193;51.032;6.356;2023-09-18T15:55:49;3.40;;;1.10;;
10295;SDS011;5193;51.032;6.356;2023-09-18T15:58:15;2.87;;;1.30;;